This is the latest recevied weather packets stored in our database for station/object IU1OLT-6. If no packets are shown the sender has not sent any weather packets the latest 10 day(s).
| Time | Temp. | Humidity | Pressure | Rain* | Wind** | Luminosity | Snow |
|---|---|---|---|---|---|---|---|
| 1788266148 | 17.78° C | 88% | 1015.3 hPa | 0 mm | - | - | - |
| 1788265188 | 16.67° C | 94% | 1015.4 hPa | 0 mm | - | - | - |
| 1788264228 | 16.67° C | 92% | 1015.5 hPa | 0 mm | - | - | - |
| 1788263316 | 16.11° C | 92% | 1015.5 hPa | 0 mm | - | - | - |
| 1788262308 | 17.22° C | 91% | 1015.3 hPa | 0 mm | - | - | - |
| 1788261360 | 16.11° C | 94% | 1015.3 hPa | 0 mm | - | - | - |
| 1788260388 | 16.67° C | 83% | 1015.3 hPa | 0 mm | - | - | - |
| 1788259428 | 16.67° C | 92% | 1015.3 hPa | 0 mm | - | - | - |
| 1788258468 | 15.56° C | 92% | 1015.4 hPa | 0 mm | - | - | - |
| 1788257508 | 16.11° C | 89% | 1015.4 hPa | 0 mm | - | - | - |
| 1788256596 | 15.56° C | 91% | 1015.3 hPa | 0 mm | - | - | - |
| 1788255588 | 15.56° C | 92% | 1015.3 hPa | 0 mm | - | - | - |
| 1788254628 | 16.11° C | 90% | 1015.1 hPa | 0 mm | - | - | - |
| 1788253668 | 16.67° C | 85% | 1015 hPa | 0 mm | - | - | - |
| 1788252708 | 16.11° C | 90% | 1015 hPa | 0 mm | - | - | - |
| 1788251748 | 16.67° C | 88% | 1014.8 hPa | 0 mm | - | - | - |
| 1788250692 | 17.22° C | 83% | 1014.6 hPa | 0 mm | - | - | - |
| 1788249780 | 16.67° C | 86% | 1014.6 hPa | 0 mm | - | - | - |
| 1788248868 | 16.67° C | 82% | 1014.4 hPa | 0 mm | - | - | - |
| 1788247956 | 16.67° C | 84% | 1014.2 hPa | 0 mm | - | - | - |
| 1788246948 | 16.11° C | 81% | 1014 hPa | 0 mm | - | - | - |
| 1788245988 | 15° C | 88% | 1014 hPa | 0 mm | - | - | - |
| 1788245028 | 14.44° C | 82% | 1013.9 hPa | 0 mm | - | - | - |
| 1788244068 | 13.89° C | 95% | 1013.9 hPa | 0 mm | - | - | - |
| 1788243108 | 13.89° C | 91% | 1013.6 hPa | 0 mm | - | - | - |
* Rain latest hour (hover to see other rain measurements)
** Current wind speed in m/s (hover to see current wind gust speed)